Aviation Digital Data Service (ADDS)

Output produced by METARs form (1645 UTC 30 July 2016)
found at http://www.aviationweather.gov/adds/metars/
 
KJFK 301617Z 3016/3118 16007KT P6SM VCSH BKN035 BKN120 
     FM301800 16008KT P6SM SCT040 BKN120 
     FM310000 15005KT P6SM SCT020 BKN050 
     PROB30 3102/3108 6SM -SHRA 
     FM310800 14007KT 5SM -SHRA BR BKN020 BKN050 
     FM311400 12010KT 5SM -SHRA BR BKN020 BKN050